Total volume
$1,287
Trades
131
Unique wallets
95
Liquidity
$7,067
Latest YES mid
51¢
Latest NO mid
49¢
End date
2026-05-06
First seen
2026-05-06
last 05-06 20:51
Cohort breakdown
who's buying — by wallet tier SMI: -3.6¢ (top1%: 33% YES on $67 vs crowd: 37% YES on $1.3K)
By volume tier
Tier Wallets YES buy NO buy Net bias
🐬 Dolphin 1 $93 $60 +$33
🐟 Fish 4 $7 $50 $43
🦐 Shrimp 90 $359 $683 $324
By P&L percentile
Tier Wallets YES buy NO buy Net bias
🎯 Top 1% 5 $22 $45 $23
🏆 Top 5% 11 $65 $69 $4
✅ Top 10% 9 $29 $50 $21
Median 12 $4 $47 $43
Below median 8 $1 $16 $15
⚠️ Bottom 10% 5 $16 $50 $34
🔻 Bottom 5% 11 $71 $118 $47
💀 Bottom 1% 5 $123 $261 $139
unranked 29 $128 $138 $9
Wallet Side Net shares Cost basis Volume Trades Last activity
(anonymous) 0xe907…cff6 Up +217 $93 $93 3 05-06 20:51
Alarmed-Eraser 0xdcf9…4cfd Down +196 $116 $116 1 05-06 20:51
Smart-Amazon 0x040b…dd51 Up +187 $80 $80 4 05-06 20:51
Austere-Delivery 0xe6f2…afa3 Down +172 $100 $100 1 05-06 20:51
Helpful-Main 0xdb6f…0269 Down +162 $81 $81 1 05-06 20:46
Humble-Outcome 0x9a1d…86d6 Down +144 $85 $85 2 05-06 20:51
Ambitious-Membership 0xc387…e4f4 Up +128 $54 $54 2 05-06 20:51
Colorful-Outline 0xc16b…a93d Up +114 $48 $48 9 05-06 20:51
(anonymous) 0xe907…cff6 Down +102 $60 $60 1 05-06 20:51
Authorized-Granddaughter 0xbb02…15f8 Down +86 $50 $50 1 05-06 20:51
lexfry11 0xf1e0…0f73 Up +51 $22 $22 1 05-06 20:51
Tempting-Bow 0xed0c…5647 Down +51 $30 $30 1 05-06 20:51
Playful-Sanction 0x35f2…c035 Down +51 $30 $30 1 05-06 20:51
Silver-Mustard 0xfd36…11b4 Down +50 $30 $30 1 05-06 20:51
Comfortable-Fruit 0x4310…2539 Up +47 $20 $20 1 05-06 20:51
Sore-Stepuncle 0x76b8…6aa1 Up +45 $20 $20 1 05-06 20:51
Slim-Pond 0x19cd…af9a Down +41 $24 $24 3 05-06 20:51
Monstrous-Dew 0x5b63…11a4 Down +36 $21 $21 2 05-06 20:51
Exalted-Tender 0x6bc0…af1a Up +33 $14 $14 1 05-06 20:51
Ambitious-Membership 0xc387…e4f4 Down +31 $18 $18 2 05-06 20:51
Poised-Common 0xfa2b…f194 Down +26 $15 $15 2 05-06 20:51
Confused-Strike 0x31e1…1185 Up +23 $10 $10 1 05-06 20:51
Chilly-Mood 0xfa09…ef0a Up +23 $10 $10 1 05-06 20:51
Careless-Rank 0x1a56…f475 Up +20 $9 $9 1 05-06 20:51
Upset-Sight 0xe022…6603 Down +20 $12 $12 1 05-06 20:51
Novel-Morbid 0x4766…5a03 Down +20 $12 $12 1 05-06 20:51
Monstrous-Dew 0x5b63…11a4 Up +17 $7 $7 1 05-06 20:51
Edible-Awareness 0x7f65…d822 Up +16 $7 $7 1 05-06 20:51
(anonymous) 0x2f53…acb1 Down +16 $9 $9 1 05-06 20:51
(anonymous) 0xb08d…5aeb Up +14 $6 $6 1 05-06 20:51
Buttery-Trace 0xb021…ebd9 Up +12 $5 $5 1 05-06 20:51
Trifling-Faith 0xcdc4…2e78 Up +12 $5 $5 1 05-06 20:51
Proper-Left 0xf16a…47df Up +12 $5 $5 1 05-06 20:51
Complicated-Invite 0x282b…f041 Down +11 $6 $6 2 05-06 20:51
Sane-Secretion 0x8026…e1d6 Down +10 $6 $6 1 05-06 20:51
Gentle-Outrun 0x9ffa…c8fc Up +9 $4 $4 3 05-06 20:51
Belated-Checkout 0x88be…97d3 Down +9 $5 $5 1 05-06 20:51
Popular-Commercial 0x2673…5ac9 Down +8 $5 $5 1 05-06 20:51
Double-Exaggeration 0x8328…feb3 Down +8 $5 $5 1 05-06 20:51
Self-Reliant-Bicycle 0xcc1d…0607 Down +8 $5 $5 1 05-06 20:51
Ignorant-Draft 0x3a9d…ef54 Down +8 $5 $5 1 05-06 20:51
Genuine-Colleague 0xf3b4…6e42 Down +8 $5 $5 1 05-06 20:51
Second-Hand-Advancement 0xeb04…b4b7 Down +8 $5 $5 1 05-06 20:51
Spry-Interval 0x08b5…a429 Up +8 $4 $4 2 05-06 20:51
Nice-Prejudice 0xfb0f…0b02 Down +8 $5 $5 1 05-06 20:51
Untrue-Mixture 0xdb2a…9e85 Down +8 $4 $4 2 05-06 20:51
Mushy-Personnel 0xba07…1509 Up +7 $3 $3 1 05-06 20:51
(anonymous) 0xc16f…5900 Up +7 $3 $3 3 05-06 20:51
Infinite-Parameter-Jail 0x6d87…3b78 Up +7 $3 $3 1 05-06 20:51
Colossal-Dump 0x4c10…b6a4 Down +6 $4 $4 1 05-06 20:51
Gargantuan-Cry 0x88d5…b67d Up +6 $3 $3 1 05-06 20:51
Mushy-Realization 0x6804…4b99 Down +6 $4 $4 2 05-06 20:51
(anonymous) 0x9f6a…ff40 Up +5 $2 $2 1 05-06 20:51
(anonymous) 0x8845…09ae Up +5 $2 $2 1 05-06 20:51
Informal-Blight 0xb7a2…e144 Up +5 $2 $2 1 05-06 20:51
Fabulous-Thread 0x4e9f…e955 Down +5 $3 $3 1 05-06 20:51
Huge-Chestnut 0xd838…d7a8 Up +5 $2 $2 1 05-06 20:51
Palatable-Patent 0x0c7c…e4cb Up +3 $1 $1 1 05-06 20:51
(anonymous) 0x830b…075f Up +3 $1 $1 1 05-06 20:51
Chilly-Forager 0xf3fe…2d2b Up +2 $1 $1 1 05-06 20:51